Time;durP1;ratioP1;P1;durP2;ratioP2;P2;SDS_P1;SDS_P2;PMS_P1;PMS_P2;Temp;Humidity;BMP_temperature;BMP_pressure;BME280_temperature;BME280_humidity;BME280_pressure;Samples;Min_cycle;Max_cycle;Signal;HPM_P1;HPM_P2
2021/12/28 00:00:17;;;;;;;19.38;14.88;;;6.50;99.90;;;;;;5011677;28;20050;-86
2021/12/28 00:02:45;;;;;;;20.98;14.93;;;6.50;99.90;;;;;;5012009;28;20077;-86
2021/12/28 00:05:12;;;;;;;21.63;14.98;;;6.50;99.90;;;;;;4994591;28;20048;-86
2021/12/28 00:07:38;;;;;;;21.25;15.57;;;6.50;99.90;;;;;;4994954;28;20069;-86
2021/12/28 00:10:06;;;;;;;19.00;15.10;;;6.50;99.90;;;;;;5011838;28;20096;-86
2021/12/28 00:12:34;;;;;;;20.55;14.90;;;6.50;99.90;;;;;;5011836;28;20069;-86
2021/12/28 00:15:05;;;;;;;21.48;15.43;;;6.60;99.90;;;;;;5011472;28;20585;-85
2021/12/28 00:20:15;;;;;;;18.00;14.48;;;6.60;99.90;;;;;;5011149;28;20046;-86
2021/12/28 00:22:41;;;;;;;21.00;17.10;;;6.60;99.90;;;;;;5011631;28;20120;-86
2021/12/28 00:25:07;;;;;;;22.40;16.60;;;6.60;99.90;;;;;;4994637;28;20038;-85
2021/12/28 00:27:33;;;;;;;21.10;16.90;;;6.70;99.90;;;;;;5011323;28;20030;-85
2021/12/28 00:29:59;;;;;;;21.98;16.52;;;6.70;99.90;;;;;;5010995;28;20100;-86
2021/12/28 00:32:24;;;;;;;20.70;16.38;;;6.70;99.90;;;;;;5011441;28;20042;-85
2021/12/28 00:34:50;;;;;;;19.90;16.70;;;6.70;99.90;;;;;;5010882;28;20065;-86
2021/12/28 00:37:16;;;;;;;23.25;19.08;;;6.70;99.90;;;;;;4994663;28;20127;-86
2021/12/28 00:39:41;;;;;;;20.95;16.50;;;6.70;99.90;;;;;;5012438;28;20042;-86
2021/12/28 00:42:08;;;;;;;20.92;17.08;;;6.80;99.90;;;;;;5011030;28;20033;-86
2021/12/28 00:44:34;;;;;;;20.90;17.15;;;6.80;99.90;;;;;;5011968;28;20113;-86
2021/12/28 00:46:59;;;;;;;25.33;18.90;;;6.80;99.90;;;;;;4994674;28;20116;-86
2021/12/28 00:49:25;;;;;;;24.08;18.80;;;6.80;99.90;;;;;;4994703;28;20046;-86
2021/12/28 00:51:51;;;;;;;24.38;17.50;;;6.80;99.90;;;;;;5011256;28;20044;-86
2021/12/28 00:54:17;;;;;;;23.65;18.30;;;6.90;99.90;;;;;;4994690;28;20038;-86
2021/12/28 00:56:43;;;;;;;23.90;20.10;;;6.90;99.90;;;;;;4994305;28;20539;-86
2021/12/28 00:59:08;;;;;;;24.63;20.40;;;6.90;99.90;;;;;;5010330;28;20149;-86
2021/12/28 01:01:34;;;;;;;24.85;18.75;;;6.90;99.90;;;;;;5010871;28;20049;-86
2021/12/28 01:04:00;;;;;;;25.45;20.48;;;6.90;99.90;;;;;;4993502;28;20030;-86
2021/12/28 01:06:25;;;;;;;25.45;19.52;;;7.00;99.90;;;;;;5011047;28;20077;-86
2021/12/28 01:08:51;;;;;;;25.75;21.08;;;7.00;99.90;;;;;;4994306;28;20479;-86
2021/12/28 01:11:17;;;;;;;26.27;20.42;;;7.00;99.90;;;;;;5010792;28;20041;-86
2021/12/28 01:13:42;;;;;;;33.70;20.80;;;7.00;99.90;;;;;;5010675;28;20545;-86
2021/12/28 01:16:08;;;;;;;25.52;20.52;;;7.00;99.90;;;;;;5012424;28;20042;-86
2021/12/28 01:18:34;;;;;;;24.92;20.75;;;7.00;99.90;;;;;;4995359;28;20068;-86
2021/12/28 01:21:00;;;;;;;28.63;21.00;;;7.10;99.90;;;;;;5021315;28;20060;-85
2021/12/28 01:23:26;;;;;;;25.10;20.75;;;7.10;99.90;;;;;;4997580;28;20103;-86
2021/12/28 01:25:52;;;;;;;29.00;21.77;;;7.10;99.90;;;;;;4993476;28;20030;-85
2021/12/28 01:28:17;;;;;;;25.42;21.95;;;7.10;99.90;;;;;;5010120;28;20048;-86
2021/12/28 01:30:43;;;;;;;28.13;23.60;;;7.10;99.90;;;;;;5009844;28;20034;-86
2021/12/28 01:33:10;;;;;;;28.45;22.98;;;7.20;99.90;;;;;;4990749;28;20038;-86
2021/12/28 01:35:36;;;;;;;26.75;22.73;;;7.20;99.90;;;;;;4990658;28;20047;-86
2021/12/28 01:38:03;;;;;;;29.17;23.70;;;7.20;99.90;;;;;;5006609;28;20038;-86
2021/12/28 01:40:32;;;;;;;25.48;21.48;;;7.20;99.90;;;;;;4974596;28;20058;-86
2021/12/28 01:43:03;;;;;;;27.73;21.98;;;7.20;99.90;;;;;;4990429;28;20130;-86
2021/12/28 01:45:31;;;;;;;31.60;23.63;;;7.20;99.90;;;;;;4990662;28;20065;-86
2021/12/28 01:47:57;;;;;;;27.35;23.08;;;7.20;99.90;;;;;;4990514;28;20040;-86
2021/12/28 01:50:23;;;;;;;36.75;24.48;;;7.30;99.90;;;;;;4974372;28;20042;-86
2021/12/28 01:52:49;;;;;;;36.08;25.55;;;7.30;99.90;;;;;;4990595;28;20050;-86
2021/12/28 01:55:14;;;;;;;32.47;24.80;;;7.30;99.90;;;;;;4990387;28;20587;-86
2021/12/28 01:57:40;;;;;;;33.58;24.83;;;7.30;99.90;;;;;;4974069;28;20035;-86
2021/12/28 02:00:07;;;;;;;33.15;25.35;;;7.30;99.90;;;;;;4974111;28;20105;-85
2021/12/28 02:02:32;;;;;;;30.48;24.48;;;7.30;99.90;;;;;;4990467;28;20040;-85
2021/12/28 02:04:58;;;;;;;31.23;25.38;;;7.30;99.90;;;;;;5007697;28;20124;-86
2021/12/28 02:07:24;;;;;;;32.75;25.33;;;7.30;99.90;;;;;;4993765;28;20049;-86
2021/12/28 02:09:49;;;;;;;29.65;24.10;;;7.30;99.90;;;;;;4993849;28;20046;-86
2021/12/28 02:12:15;;;;;;;35.50;25.60;;;7.30;99.90;;;;;;4993549;28;20470;-86
2021/12/28 02:14:44;;;;;;;33.78;25.15;;;7.40;99.90;;;;;;4993264;28;20034;-86
2021/12/28 02:17:10;;;;;;;33.40;24.52;;;7.40;99.90;;;;;;5009846;28;20049;-86
2021/12/28 02:19:36;;;;;;;28.65;23.60;;;7.40;99.90;;;;;;5009879;28;20042;-86
2021/12/28 02:22:01;;;;;;;34.47;26.70;;;7.40;99.90;;;;;;4992680;28;20052;-86
2021/12/28 02:24:27;;;;;;;33.10;25.65;;;7.40;99.90;;;;;;4993561;28;20049;-86
2021/12/28 02:26:53;;;;;;;32.13;25.73;;;7.40;99.90;;;;;;5009854;28;20567;-86
2021/12/28 02:29:19;;;;;;;31.48;25.08;;;7.40;99.90;;;;;;4993588;28;20030;-86
2021/12/28 02:31:46;;;;;;;31.17;25.08;;;7.40;99.90;;;;;;5013507;28;20044;-86
2021/12/28 02:34:12;;;;;;;28.88;24.08;;;7.40;99.90;;;;;;4996881;28;20046;-86
2021/12/28 02:36:37;;;;;;;28.05;24.30;;;7.40;99.90;;;;;;4997180;28;20061;-86
2021/12/28 02:39:03;;;;;;;31.80;25.67;;;7.40;99.90;;;;;;5013097;28;20044;-86
2021/12/28 02:41:29;;;;;;;30.88;26.40;;;7.40;99.90;;;;;;5013618;28;20072;-86
2021/12/28 02:44:00;;;;;;;32.45;26.25;;;7.50;99.90;;;;;;4996819;28;20038;-86
2021/12/28 02:46:26;;;;;;;35.67;28.15;;;7.50;99.90;;;;;;4997202;28;20038;-86
2021/12/28 02:48:51;;;;;;;32.60;25.52;;;7.50;99.90;;;;;;5013006;28;20033;-86
2021/12/28 02:51:17;;;;;;;32.70;26.67;;;7.60;99.90;;;;;;4997446;28;20042;-86
2021/12/28 02:53:44;;;;;;;31.42;26.15;;;7.60;99.90;;;;;;5013405;28;20430;-86
2021/12/28 02:56:11;;;;;;;34.42;28.05;;;7.60;99.90;;;;;;4996808;28;20046;-86
2021/12/28 02:58:49;;;;;;;32.38;25.95;;;7.60;99.90;;;;;;4996406;28;20041;-86
2021/12/28 03:01:16;;;;;;;30.63;23.95;;;7.60;99.90;;;;;;5012928;28;20522;-86
2021/12/28 03:03:47;;;;;;;31.90;25.70;;;7.60;99.90;;;;;;5012209;28;20038;-86
2021/12/28 03:06:18;;;;;;;30.73;25.23;;;7.60;99.90;;;;;;4996766;28;20044;-85
2021/12/28 03:08:48;;;;;;;33.53;27.88;;;7.70;99.90;;;;;;4996538;28;20535;-86
2021/12/28 03:11:15;;;;;;;34.30;26.30;;;7.60;99.90;;;;;;4997085;28;20479;-86
2021/12/28 03:13:50;;;;;;;30.50;24.80;;;7.60;99.90;;;;;;5012540;28;20041;-85
2021/12/28 03:16:17;;;;;;;34.70;27.50;;;7.60;99.90;;;;;;5012978;28;20084;-86
2021/12/28 03:18:44;;;;;;;28.50;22.65;;;7.50;99.90;;;;;;4996071;28;20126;-86
2021/12/28 03:21:11;;;;;;;29.95;22.45;;;7.50;99.90;;;;;;5012788;28;20037;-86
2021/12/28 03:23:39;;;;;;;29.88;23.20;;;7.50;99.90;;;;;;4996159;28;20038;-86
2021/12/28 03:26:06;;;;;;;35.28;26.60;;;7.40;99.90;;;;;;4996649;28;20046;-86
2021/12/28 03:28:35;;;;;;;35.88;28.17;;;7.40;99.90;;;;;;4996608;28;20515;-86
2021/12/28 03:31:02;;;;;;;43.75;27.30;;;7.30;99.90;;;;;;5012255;28;20077;-86
2021/12/28 03:33:30;;;;;;;43.80;29.50;;;7.30;99.90;;;;;;5012384;28;20554;-86
2021/12/28 03:35:57;;;;;;;42.72;27.52;;;7.30;99.90;;;;;;5012503;28;20053;-86
2021/12/28 03:38:23;;;;;;;43.42;27.88;;;7.30;99.90;;;;;;5012210;28;20045;-86
2021/12/28 03:40:50;;;;;;;50.97;28.13;;;7.30;99.90;;;;;;5012087;28;20038;-86
2021/12/28 03:43:17;;;;;;;40.92;27.42;;;7.20;99.90;;;;;;5012003;28;20057;-86
2021/12/28 03:45:44;;;;;;;64.00;30.60;;;7.30;99.90;;;;;;5012379;28;20120;-85
2021/12/28 03:48:10;;;;;;;45.70;28.35;;;7.30;99.90;;;;;;4995924;28;20046;-86
2021/12/28 03:50:37;;;;;;;39.85;26.88;;;7.20;99.90;;;;;;4996205;28;20059;-85
2021/12/28 03:53:05;;;;;;;45.17;26.95;;;7.30;99.90;;;;;;5007855;28;20052;-85
2021/12/28 03:55:30;;;;;;;33.65;24.23;;;7.30;99.90;;;;;;5014619;28;20054;-85
2021/12/28 03:57:59;;;;;;;34.13;24.98;;;7.30;99.90;;;;;;5008655;28;20057;-85
2021/12/28 04:00:27;;;;;;;37.88;26.10;;;7.30;99.90;;;;;;4992942;28;20049;-85
2021/12/28 04:02:53;;;;;;;38.40;25.42;;;7.30;99.90;;;;;;5011708;28;20125;-85
2021/12/28 04:05:19;;;;;;;41.10;27.25;;;7.30;99.90;;;;;;4995557;28;20133;-86
2021/12/28 04:07:46;;;;;;;43.88;26.63;;;7.30;99.90;;;;;;5011839;28;20030;-86
2021/12/28 04:10:12;;;;;;;44.28;26.55;;;7.30;99.90;;;;;;5011747;28;20041;-86
2021/12/28 04:12:39;;;;;;;40.42;25.50;;;7.30;99.90;;;;;;4995365;28;20095;-86
2021/12/28 04:15:10;;;;;;;38.03;24.80;;;7.30;99.90;;;;;;4995168;28;20050;-85
2021/12/28 04:17:37;;;;;;;40.17;25.25;;;7.20;99.90;;;;;;5011798;28;20284;-86
2021/12/28 04:20:13;;;;;;;49.53;26.63;;;7.20;99.90;;;;;;4995170;28;20377;-85
2021/12/28 04:22:39;;;;;;;36.38;24.80;;;7.20;99.90;;;;;;4995587;28;20483;-86
2021/12/28 04:25:07;;;;;;;37.05;24.77;;;7.20;99.90;;;;;;5008945;28;20123;-86
2021/12/28 04:27:33;;;;;;;40.35;25.95;;;7.20;99.90;;;;;;5011510;28;20157;-86
2021/12/28 04:29:59;;;;;;;40.55;26.02;;;7.20;99.90;;;;;;4994335;28;20120;-85
2021/12/28 04:32:25;;;;;;;39.25;25.27;;;7.20;99.90;;;;;;5011219;28;20177;-85
2021/12/28 04:34:51;;;;;;;39.25;25.35;;;7.20;99.90;;;;;;4994465;28;20049;-85
2021/12/28 04:37:16;;;;;;;36.25;25.00;;;7.20;99.90;;;;;;4994889;28;20034;-86
2021/12/28 04:39:42;;;;;;;36.42;23.38;;;7.20;99.90;;;;;;5010727;28;20555;-86
2021/12/28 04:42:08;;;;;;;35.92;25.58;;;7.20;99.90;;;;;;5011358;28;20049;-86
2021/12/28 04:44:34;;;;;;;36.58;24.17;;;7.20;99.90;;;;;;4994521;28;20492;-86
2021/12/28 04:46:59;;;;;;;34.72;24.23;;;7.20;99.90;;;;;;4995383;28;20488;-86
2021/12/28 04:49:27;;;;;;;34.75;23.17;;;7.20;99.90;;;;;;5010963;28;20411;-86
2021/12/28 04:51:53;;;;;;;31.02;22.77;;;7.20;99.90;;;;;;4994495;28;20088;-86
2021/12/28 04:54:20;;;;;;;31.55;22.23;;;7.20;99.90;;;;;;4993487;28;20037;-85
2021/12/28 04:56:46;;;;;;;32.67;22.63;;;7.20;99.90;;;;;;4994455;28;20049;-86
2021/12/28 04:59:15;;;;;;;31.40;22.58;;;7.10;99.90;;;;;;5027017;28;20133;-86
2021/12/28 05:01:41;;;;;;;29.27;21.48;;;7.10;99.90;;;;;;4994258;28;20049;-85
2021/12/28 05:04:07;;;;;;;28.88;21.27;;;7.20;99.90;;;;;;5010805;28;20046;-85
2021/12/28 05:06:35;;;;;;;28.70;20.30;;;7.10;99.90;;;;;;5010873;28;20037;-86
2021/12/28 05:09:03;;;;;;;29.75;21.05;;;7.10;99.90;;;;;;4994080;28;20034;-86
2021/12/28 05:11:31;;;;;;;27.20;20.23;;;7.20;99.90;;;;;;4994205;28;20081;-86
2021/12/28 05:13:57;;;;;;;30.25;21.58;;;7.10;99.90;;;;;;4993966;28;20414;-86
2021/12/28 05:16:22;;;;;;;24.45;18.33;;;7.10;99.90;;;;;;4994374;28;20042;-86
2021/12/28 05:18:48;;;;;;;27.45;19.77;;;7.10;99.90;;;;;;4993947;28;20045;-86
2021/12/28 05:21:14;;;;;;;26.25;18.52;;;7.10;99.90;;;;;;4993890;28;20053;-86
2021/12/28 05:23:39;;;;;;;29.48;19.95;;;7.10;99.90;;;;;;5010405;28;20041;-85
2021/12/28 05:26:05;;;;;;;25.85;19.13;;;7.10;99.90;;;;;;5010551;28;20539;-86
2021/12/28 05:28:30;;;;;;;29.85;19.08;;;7.10;99.90;;;;;;4993846;28;20037;-86
2021/12/28 05:30:56;;;;;;;25.83;18.65;;;7.10;99.90;;;;;;5010414;28;20068;-86
2021/12/28 05:33:22;;;;;;;23.92;18.25;;;7.10;99.90;;;;;;5009849;28;20530;-86
2021/12/28 05:35:47;;;;;;;28.50;19.15;;;7.10;99.90;;;;;;4993861;28;20100;-86
2021/12/28 05:38:13;;;;;;;26.00;18.08;;;7.10;99.90;;;;;;5010193;28;20099;-86
2021/12/28 05:40:39;;;;;;;25.38;18.45;;;7.10;99.90;;;;;;5009749;28;20081;-86
2021/12/28 05:43:05;;;;;;;26.75;18.92;;;7.10;99.90;;;;;;4993814;28;20570;-86
2021/12/28 05:45:31;;;;;;;24.63;17.52;;;7.10;99.90;;;;;;5010400;28;20141;-85
2021/12/28 05:47:57;;;;;;;23.27;17.10;;;7.10;99.90;;;;;;5010352;28;20037;-86
2021/12/28 05:50:23;;;;;;;23.88;17.48;;;7.10;99.90;;;;;;4993894;28;20460;-86
2021/12/28 05:52:48;;;;;;;22.90;16.90;;;7.10;99.90;;;;;;5010142;28;20499;-86
2021/12/28 05:55:14;;;;;;;24.80;17.58;;;7.10;99.90;;;;;;4993805;28;20077;-86
2021/12/28 05:57:40;;;;;;;23.98;16.80;;;7.10;99.90;;;;;;4994060;28;20046;-86
2021/12/28 06:00:09;;;;;;;22.67;15.82;;;7.10;99.90;;;;;;5009541;28;20077;-86
2021/12/28 06:02:35;;;;;;;21.17;15.73;;;7.00;99.90;;;;;;4994128;28;20038;-86
2021/12/28 06:05:00;;;;;;;23.23;15.23;;;7.10;99.90;;;;;;5012179;28;20454;-86
2021/12/28 06:07:27;;;;;;;23.00;14.98;;;7.00;99.90;;;;;;5000259;28;20770;-85
2021/12/28 06:09:57;;;;;;;23.50;15.43;;;7.00;99.90;;;;;;5000253;28;20108;-87
2021/12/28 06:12:23;;;;;;;22.05;15.93;;;7.00;99.90;;;;;;5000513;28;20037;-86
2021/12/28 06:14:50;;;;;;;21.80;15.35;;;7.00;99.90;;;;;;4999635;28;20041;-86
2021/12/28 06:17:16;;;;;;;23.20;15.23;;;7.00;99.90;;;;;;5000377;28;20121;-86
2021/12/28 06:19:42;;;;;;;21.55;15.40;;;7.00;99.90;;;;;;4999666;28;20069;-86
2021/12/28 06:22:08;;;;;;;22.10;14.48;;;7.00;99.90;;;;;;5015790;28;20499;-86
2021/12/28 06:24:33;;;;;;;22.15;14.82;;;7.00;99.90;;;;;;4999923;28;20068;-86
2021/12/28 06:26:59;;;;;;;20.15;14.45;;;7.10;99.90;;;;;;5000373;28;20442;-86
2021/12/28 06:29:25;;;;;;;21.90;13.45;;;7.00;99.90;;;;;;5000029;28;20407;-86
2021/12/28 06:31:50;;;;;;;22.63;13.57;;;7.00;99.90;;;;;;5017325;28;20038;-86
2021/12/28 06:34:18;;;;;;;20.70;14.35;;;7.00;99.90;;;;;;5017140;28;20053;-86
2021/12/28 06:36:43;;;;;;;21.98;14.18;;;7.00;99.90;;;;;;5006358;28;20041;-86
2021/12/28 06:39:10;;;;;;;21.92;13.60;;;7.00;99.90;;;;;;5005219;28;20041;-86
2021/12/28 06:41:38;;;;;;;19.48;13.35;;;7.00;99.90;;;;;;5015628;28;20042;-86
2021/12/28 06:44:05;;;;;;;21.67;13.90;;;7.00;99.90;;;;;;4999288;28;20045;-85
2021/12/28 06:46:31;;;;;;;22.20;14.13;;;7.00;99.90;;;;;;5016174;28;20081;-85
2021/12/28 06:48:56;;;;;;;23.00;14.60;;;7.00;99.90;;;;;;5016137;28;20422;-86
2021/12/28 06:51:22;;;;;;;19.88;13.13;;;7.00;99.90;;;;;;5016411;28;20046;-86
2021/12/28 06:53:48;;;;;;;21.70;13.73;;;7.00;99.90;;;;;;4998107;28;20034;-86
2021/12/28 06:56:14;;;;;;;20.83;13.13;;;7.00;99.90;;;;;;4999863;28;20403;-86
2021/12/28 06:58:40;;;;;;;20.92;13.77;;;7.00;99.90;;;;;;4999161;28;20034;-86
2021/12/28 07:01:06;;;;;;;19.77;13.82;;;7.00;99.90;;;;;;5015476;28;20065;-86
2021/12/28 07:03:32;;;;;;;20.08;13.30;;;7.00;99.90;;;;;;4995082;28;20034;-86
2021/12/28 07:05:58;;;;;;;19.02;12.73;;;7.00;99.90;;;;;;4996372;28;20030;-86
2021/12/28 07:08:23;;;;;;;20.20;12.32;;;7.00;99.90;;;;;;4996233;28;20038;-86
2021/12/28 07:10:49;;;;;;;19.52;13.20;;;6.90;99.90;;;;;;4979777;28;20125;-86
2021/12/28 07:13:15;;;;;;;20.42;12.60;;;6.90;99.90;;;;;;4996318;28;20035;-86
2021/12/28 07:15:40;;;;;;;23.60;12.35;;;6.90;99.90;;;;;;4995393;28;20520;-86
2021/12/28 07:18:06;;;;;;;20.40;11.68;;;6.90;99.90;;;;;;4976509;28;20038;-86
2021/12/28 07:20:31;;;;;;;18.95;11.68;;;6.90;99.90;;;;;;4976385;28;20104;-86
2021/12/28 07:22:57;;;;;;;18.92;12.52;;;6.90;99.90;;;;;;4977214;28;20137;-86
2021/12/28 07:25:24;;;;;;;19.27;12.07;;;6.90;99.90;;;;;;4993066;28;20042;-86
2021/12/28 07:27:50;;;;;;;18.05;11.38;;;6.90;99.90;;;;;;4976822;28;20039;-86
2021/12/28 07:30:16;;;;;;;21.33;11.70;;;6.90;99.90;;;;;;4976840;28;20081;-86
2021/12/28 07:32:42;;;;;;;18.85;11.27;;;6.90;99.90;;;;;;4976952;28;20073;-85
2021/12/28 07:35:10;;;;;;;17.55;11.80;;;6.90;99.90;;;;;;4992851;28;20078;-86
2021/12/28 07:37:36;;;;;;;20.67;11.77;;;6.90;99.90;;;;;;4976624;28;20558;-86
2021/12/28 07:40:03;;;;;;;21.80;10.48;;;6.90;99.90;;;;;;4976132;28;20038;-86
2021/12/28 07:42:29;;;;;;;18.35;10.63;;;6.90;99.90;;;;;;4992317;28;20588;-86
2021/12/28 07:44:55;;;;;;;18.13;10.38;;;6.90;99.90;;;;;;4992435;28;20121;-86
2021/12/28 07:47:20;;;;;;;17.48;10.88;;;6.90;99.90;;;;;;4977047;28;20038;-86
2021/12/28 07:49:46;;;;;;;17.13;10.10;;;6.90;99.90;;;;;;4992516;28;20229;-86
2021/12/28 07:52:12;;;;;;;17.10;10.15;;;6.90;99.90;;;;;;4976590;28;20046;-86
2021/12/28 07:54:37;;;;;;;17.42;10.20;;;6.90;99.90;;;;;;4976380;28;20076;-86
2021/12/28 07:57:03;;;;;;;18.17;9.73;;;6.90;99.90;;;;;;4992502;28;20042;-85
2021/12/28 07:59:29;;;;;;;18.60;10.18;;;6.90;99.90;;;;;;4992156;28;20108;-86
2021/12/28 08:01:54;;;;;;;18.88;10.05;;;6.90;99.90;;;;;;4976345;28;20046;-86
2021/12/28 08:04:20;;;;;;;19.00;9.65;;;6.90;99.90;;;;;;4988154;28;20041;-86
2021/12/28 08:06:46;;;;;;;18.33;9.57;;;6.90;99.90;;;;;;4995755;28;20080;-86
2021/12/28 08:09:11;;;;;;;17.95;9.32;;;6.90;99.90;;;;;;5011965;28;20038;-87
2021/12/28 08:11:37;;;;;;;18.88;9.60;;;6.90;99.90;;;;;;4995071;28;20038;-86
2021/12/28 08:14:04;;;;;;;20.65;9.35;;;6.90;99.90;;;;;;4995409;28;20038;-86
2021/12/28 08:16:30;;;;;;;18.17;9.48;;;6.90;99.90;;;;;;4995573;28;20055;-86
2021/12/28 08:18:55;;;;;;;19.35;9.90;;;6.90;99.90;;;;;;4995527;28;20037;-86
2021/12/28 08:21:21;;;;;;;20.52;9.40;;;6.90;99.90;;;;;;4994928;28;20561;-86
2021/12/28 08:23:47;;;;;;;17.17;8.50;;;6.90;99.90;;;;;;4995341;28;20042;-85
2021/12/28 08:26:13;;;;;;;15.55;8.38;;;6.90;99.90;;;;;;5011547;28;20415;-85
2021/12/28 08:28:38;;;;;;;15.30;8.32;;;6.90;99.90;;;;;;4995249;28;20081;-85
2021/12/28 08:31:04;;;;;;;18.65;8.50;;;7.00;99.90;;;;;;4995412;28;20077;-86
2021/12/28 08:33:30;;;;;;;17.00;8.30;;;7.00;99.90;;;;;;4994523;28;20507;-85
2021/12/28 08:35:56;;;;;;;16.27;7.63;;;7.00;99.90;;;;;;4995296;28;20046;-85
2021/12/28 08:38:22;;;;;;;15.57;8.55;;;7.00;99.90;;;;;;5011418;28;20038;-86
2021/12/28 08:40:47;;;;;;;18.60;7.88;;;7.00;99.90;;;;;;5011284;28;20053;-86
2021/12/28 08:43:13;;;;;;;16.42;8.10;;;7.00;99.90;;;;;;5011194;28;20038;-86
2021/12/28 08:45:41;;;;;;;16.88;7.63;;;7.00;99.90;;;;;;5011288;28;20038;-86
2021/12/28 08:48:08;;;;;;;23.02;8.18;;;7.10;99.90;;;;;;4995014;28;20045;-86
2021/12/28 08:50:35;;;;;;;15.93;8.27;;;7.10;99.90;;;;;;5011623;28;20041;-86
2021/12/28 08:53:01;;;;;;;20.45;8.20;;;7.10;99.90;;;;;;4994753;28;20073;-85
2021/12/28 08:55:27;;;;;;;17.60;7.75;;;7.10;99.90;;;;;;4994367;28;20084;-85
2021/12/28 08:57:52;;;;;;;18.73;8.13;;;7.10;99.90;;;;;;5010975;28;20069;-83
2021/12/28 09:00:26;;;;;;;19.02;7.50;;;7.10;99.90;;;;;;5019253;28;20495;-85
2021/12/28 09:02:54;;;;;;;18.63;7.53;;;7.10;99.90;;;;;;5011628;28;20077;-84
2021/12/28 09:05:20;;;;;;;15.43;6.68;;;7.10;99.90;;;;;;5011896;28;20042;-85
2021/12/28 09:07:46;;;;;;;19.30;7.70;;;7.20;99.90;;;;;;4977787;28;20466;-85
2021/12/28 09:10:12;;;;;;;20.20;8.02;;;7.20;99.90;;;;;;4992477;28;20042;-85
2021/12/28 09:12:38;;;;;;;16.52;7.72;;;7.20;99.90;;;;;;4992713;28;20385;-85
2021/12/28 09:15:08;;;;;;;17.33;7.15;;;7.30;99.90;;;;;;4980647;28;20038;-85
2021/12/28 09:17:34;;;;;;;19.30;7.40;;;7.30;99.90;;;;;;4999251;28;20043;-85
2021/12/28 09:20:02;;;;;;;19.58;7.45;;;7.30;99.90;;;;;;4998231;28;20046;-85
2021/12/28 09:22:28;;;;;;;15.98;7.25;;;7.40;99.90;;;;;;4994243;28;20048;-85
2021/12/28 09:24:53;;;;;;;15.85;7.20;;;7.40;99.90;;;;;;5010298;28;20041;-85
2021/12/28 09:27:19;;;;;;;17.40;7.00;;;7.50;99.90;;;;;;4994536;28;20038;-84
2021/12/28 09:29:44;;;;;;;19.63;7.20;;;7.50;99.90;;;;;;4993906;28;20076;-85
2021/12/28 09:32:10;;;;;;;16.73;6.90;;;7.50;99.90;;;;;;5009554;28;20196;-85
2021/12/28 09:34:36;;;;;;;18.20;6.50;;;7.60;99.90;;;;;;5009884;28;20049;-85
2021/12/28 09:37:03;;;;;;;15.27;6.93;;;7.60;99.90;;;;;;5007796;28;20100;-86
2021/12/28 09:39:29;;;;;;;18.90;6.50;;;7.60;99.90;;;;;;4992174;28;20506;-86
2021/12/28 09:42:00;;;;;;;20.90;7.72;;;7.70;99.90;;;;;;4992474;28;20503;-86
2021/12/28 09:44:27;;;;;;;18.80;6.88;;;7.70;99.90;;;;;;5009999;28;20041;-85
2021/12/28 09:46:53;;;;;;;16.02;6.20;;;7.70;99.90;;;;;;5010596;28;20125;-86
2021/12/28 09:49:19;;;;;;;16.60;6.88;;;7.70;99.90;;;;;;5010665;28;20452;-86
2021/12/28 09:51:44;;;;;;;14.93;6.75;;;7.80;99.90;;;;;;4993839;28;20562;-86
2021/12/28 09:54:10;;;;;;;20.17;7.20;;;7.80;99.90;;;;;;4993697;28;20038;-86
2021/12/28 09:56:37;;;;;;;19.00;7.15;;;7.80;99.90;;;;;;4993968;28;20046;-86
2021/12/28 09:59:05;;;;;;;17.83;7.43;;;7.90;99.90;;;;;;4993817;28;20034;-86
2021/12/28 10:01:31;;;;;;;18.67;7.45;;;7.90;99.90;;;;;;5009516;28;20111;-86
2021/12/28 10:03:57;;;;;;;18.33;6.80;;;7.90;99.90;;;;;;4992547;28;20054;-86
2021/12/28 10:06:26;;;;;;;20.23;6.57;;;8.00;99.90;;;;;;4993744;28;20074;-86
2021/12/28 10:09:13;;;;;;;16.95;6.50;;;8.00;99.90;;;;;;5010363;28;20068;-86
2021/12/28 10:11:42;;;;;;;18.20;6.30;;;8.00;99.90;;;;;;5009630;28;20057;-86
2021/12/28 10:14:24;;;;;;;17.23;6.85;;;8.10;99.90;;;;;;5009941;28;20044;-85
2021/12/28 10:16:52;;;;;;;17.60;6.95;;;8.10;99.90;;;;;;5010083;28;20038;-86
2021/12/28 10:19:41;;;;;;;17.60;7.03;;;8.10;99.90;;;;;;5009914;28;20045;-86
2021/12/28 10:22:38;;;;;;;17.60;6.32;;;8.10;99.90;;;;;;5008524;28;20085;-86
2021/12/28 10:25:09;;;;;;;16.77;6.70;;;8.20;99.90;;;;;;5010618;28;20065;-86
2021/12/28 10:27:37;;;;;;;18.90;6.25;;;8.20;99.90;;;;;;4993595;28;20045;-85
2021/12/28 10:30:21;;;;;;;18.42;6.80;;;8.20;99.90;;;;;;5009750;28;20038;-86
2021/12/28 10:32:49;;;;;;;18.83;7.18;;;8.20;99.90;;;;;;4993428;28;20049;-86
2021/12/28 10:35:27;;;;;;;21.30;7.13;;;8.30;99.90;;;;;;5008918;28;20049;-87
2021/12/28 10:37:58;;;;;;;16.90;6.22;;;8.30;99.90;;;;;;4993644;28;20046;-87
2021/12/28 10:40:31;;;;;;;16.48;6.70;;;8.30;99.90;;;;;;5009459;28;20042;-87
2021/12/28 10:43:12;;;;;;;20.08;6.32;;;8.30;99.90;;;;;;5009574;28;20041;-87
2021/12/28 10:45:45;;;;;;;17.00;7.07;;;8.40;99.90;;;;;;5009752;28;20451;-87
2021/12/28 10:48:15;;;;;;;21.13;7.10;;;8.40;99.90;;;;;;4993393;28;20149;-87
2021/12/28 10:50:43;;;;;;;17.83;6.93;;;8.40;99.90;;;;;;4992944;28;20042;-87
2021/12/28 10:53:35;;;;;;;18.65;7.13;;;8.40;99.90;;;;;;5014006;28;20069;-87
2021/12/28 10:56:02;;;;;;;18.50;6.35;;;8.40;99.90;;;;;;5011424;28;20045;-88
2021/12/28 10:58:39;;;;;;;19.52;6.93;;;8.50;99.90;;;;;;4996480;28;20044;-87
2021/12/28 11:01:23;;;;;;;16.75;6.55;;;8.50;99.90;;;;;;5011155;28;20042;-87
2021/12/28 11:03:55;;;;;;;15.00;6.53;;;8.50;99.90;;;;;;4985079;28;20091;-87
2021/12/28 11:06:27;;;;;;;16.25;6.78;;;8.50;99.90;;;;;;5012898;28;20045;-87
2021/12/28 11:08:56;;;;;;;14.70;6.68;;;8.50;99.90;;;;;;5013303;28;20041;-88
2021/12/28 11:11:24;;;;;;;15.05;6.80;;;8.50;99.90;;;;;;4996407;28;20548;-87
2021/12/28 11:13:57;;;;;;;17.80;6.97;;;8.60;99.90;;;;;;5012626;28;20049;-87
2021/12/28 11:16:26;;;;;;;15.75;6.75;;;8.60;99.90;;;;;;5012920;28;20045;-87
2021/12/28 11:18:54;;;;;;;16.60;7.10;;;8.60;99.90;;;;;;5012755;28;20049;-87
2021/12/28 11:21:27;;;;;;;14.93;6.75;;;8.60;99.90;;;;;;5012292;28;20423;-87
2021/12/28 11:23:54;;;;;;;;;;;8.60;99.90;;;;;;5012969;28;20558;-87
2021/12/28 11:26:32;;;;;;;15.90;7.13;;;8.60;99.90;;;;;;5029265;28;19963;-87
2021/12/28 11:29:13;;;;;;;18.88;7.72;;;8.60;99.90;;;;;;5013215;28;20506;-87
2021/12/28 11:31:43;;;;;;;16.15;7.53;;;8.60;99.90;;;;;;5012750;28;20517;-87
2021/12/28 11:34:25;;;;;;;20.20;8.00;;;8.60;99.90;;;;;;5012055;28;20411;-87
2021/12/28 11:37:08;;;;;;;19.58;7.80;;;8.60;99.90;;;;;;5012629;28;20041;-87
2021/12/28 11:39:48;;;;;;;20.30;8.13;;;8.60;99.90;;;;;;5012693;28;20164;-87
2021/12/28 11:42:18;;;;;;;17.58;7.75;;;8.60;99.90;;;;;;5012166;28;20053;-87
2021/12/28 11:44:44;;;;;;;17.60;8.57;;;8.60;99.90;;;;;;4995600;28;20050;-88
2021/12/28 11:47:12;;;;;;;18.02;8.27;;;8.60;99.90;;;;;;5012888;28;20038;-88
2021/12/28 11:49:40;;;;;;;14.95;8.18;;;8.70;99.90;;;;;;4997783;28;20368;-87
2021/12/28 11:52:10;;;;;;;17.80;9.43;;;8.70;99.90;;;;;;5013766;28;20092;-88
2021/12/28 11:54:38;;;;;;;20.52;10.32;;;8.70;99.90;;;;;;5015477;28;20093;-87
2021/12/28 11:57:12;;;;;;;17.05;9.27;;;8.80;99.90;;;;;;5025510;28;20073;-87
2021/12/28 11:59:40;;;;;;;15.85;9.15;;;8.80;99.90;;;;;;5012263;28;20050;-87
2021/12/28 12:02:07;;;;;;;14.93;9.02;;;8.80;99.90;;;;;;4995047;28;20042;-87
2021/12/28 12:04:33;;;;;;;16.98;9.98;;;8.80;99.90;;;;;;4991615;28;20034;-88
2021/12/28 12:07:17;;;;;;;15.85;9.32;;;8.80;99.90;;;;;;4976796;28;20404;-87
2021/12/28 12:10:05;;;;;;;15.25;9.75;;;8.80;99.90;;;;;;4997060;28;20030;-88
2021/12/28 12:12:42;;;;;;;16.77;9.40;;;8.80;99.90;;;;;;5011940;28;20085;-87
2021/12/28 12:15:09;;;;;;;14.77;9.52;;;8.80;99.90;;;;;;4995526;28;20038;-87
2021/12/28 12:17:37;;;;;;;16.17;9.50;;;8.90;99.90;;;;;;5008073;28;20585;-87
2021/12/28 12:20:06;;;;;;;14.07;8.88;;;8.90;99.90;;;;;;4976160;28;20395;-87
2021/12/28 12:22:31;;;;;;;16.70;9.45;;;8.90;99.90;;;;;;4975888;28;20125;-87
2021/12/28 12:24:59;;;;;;;15.40;10.45;;;8.90;99.90;;;;;;4975530;28;20157;-87
2021/12/28 12:27:52;;;;;;;14.23;10.30;;;8.90;99.90;;;;;;5009509;28;20125;-88
2021/12/28 12:30:18;;;;;;;15.00;9.95;;;9.00;99.90;;;;;;5007607;28;20029;-88
2021/12/28 12:33:02;;;;;;;15.57;9.90;;;8.90;99.90;;;;;;4995164;28;20038;-87
2021/12/28 12:35:33;;;;;;;15.20;11.13;;;9.00;99.90;;;;;;5027474;28;20041;-87
2021/12/28 12:38:28;;;;;;;16.55;10.88;;;9.00;99.90;;;;;;5011568;28;20168;-87
2021/12/28 12:40:55;;;;;;;17.55;11.48;;;9.00;99.90;;;;;;5021271;28;20046;-87
2021/12/28 12:43:38;;;;;;;15.70;11.23;;;9.00;99.90;;;;;;5010085;28;20042;-88
2021/12/28 12:46:21;;;;;;;15.10;11.38;;;9.00;99.90;;;;;;5009058;28;20089;-88